createdAt,value
2022-09-23T00:01:21.581Z,12.59
2022-09-23T00:03:49.808Z,12.47
2022-09-23T00:06:23.049Z,12.49
2022-09-23T00:08:51.565Z,12.55
2022-09-23T00:11:28.316Z,12.46
2022-09-23T00:13:58.645Z,12.26
2022-09-23T00:16:29.936Z,12.42
2022-09-23T00:18:57.534Z,12.19
2022-09-23T00:21:25.797Z,12.27
2022-09-23T00:23:53.756Z,12.09
2022-09-23T00:26:22.568Z,12.23
2022-09-23T00:28:52.804Z,12.13
2022-09-23T00:31:25.245Z,12.14
2022-09-23T00:33:57.581Z,12.17
2022-09-23T00:36:25.683Z,11.94
2022-09-23T00:38:54.023Z,12.08
2022-09-23T00:41:22.111Z,12.00
2022-09-23T00:43:59.309Z,12.09
2022-09-23T00:46:37.396Z,12.09
2022-09-23T00:49:11.388Z,11.94
2022-09-23T00:51:49.806Z,12.12
2022-09-23T00:54:19.167Z,12.02
2022-09-23T00:56:46.448Z,11.98
2022-09-23T00:59:14.274Z,11.82
2022-09-23T01:01:43.058Z,11.85
2022-09-23T01:04:10.483Z,11.80
2022-09-23T01:06:37.906Z,11.87
2022-09-23T01:09:05.463Z,11.64
2022-09-23T01:11:57.585Z,11.93
2022-09-23T01:14:56.442Z,11.82
2022-09-23T01:17:51.509Z,11.67
2022-09-23T01:20:59.531Z,11.53
2022-09-23T01:24:21.368Z,11.52
2022-09-23T01:26:51.348Z,11.59
2022-09-23T01:29:27.946Z,11.51
2022-09-23T01:31:59.825Z,11.23
2022-09-23T01:34:38.028Z,11.23
2022-09-23T01:37:16.253Z,11.37
2022-09-23T01:40:02.107Z,11.46
2022-09-23T01:42:42.530Z,11.63
2022-09-23T01:45:18.153Z,11.57
2022-09-23T01:47:57.383Z,11.47
2022-09-23T01:50:53.660Z,11.54
2022-09-23T01:53:51.774Z,11.61
2022-09-23T01:56:30.711Z,11.39
2022-09-23T01:59:29.528Z,11.60
2022-09-23T02:02:15.614Z,11.77
2022-09-23T02:04:46.044Z,11.81
2022-09-23T02:07:35.744Z,11.64
2022-09-23T02:10:20.079Z,11.62
2022-09-23T02:12:53.438Z,11.70
2022-09-23T02:15:28.993Z,11.60
2022-09-23T02:18:09.037Z,11.31
2022-09-23T02:20:41.899Z,11.29
2022-09-23T02:23:13.565Z,11.24
2022-09-23T02:26:01.085Z,11.17
2022-09-23T02:28:38.600Z,11.09
2022-09-23T02:31:09.838Z,11.06
2022-09-23T02:33:44.378Z,11.03
2022-09-23T02:36:21.299Z,11.10
2022-09-23T02:39:01.947Z,11.08
2022-09-23T02:41:43.804Z,11.15
2022-09-23T02:44:14.785Z,11.21
2022-09-23T02:46:45.737Z,11.19
2022-09-23T02:49:26.879Z,11.28
2022-09-23T02:51:55.168Z,11.35
2022-09-23T02:54:26.303Z,11.13
2022-09-23T02:56:53.882Z,11.10
2022-09-23T02:59:23.437Z,11.19
2022-09-23T03:02:08.270Z,11.11
2022-09-23T03:05:13.071Z,11.26
2022-09-23T03:08:05.206Z,11.20
2022-09-23T03:11:13.877Z,11.15
2022-09-23T03:13:58.690Z,11.41
2022-09-23T03:16:45.102Z,11.26
2022-09-23T03:19:36.295Z,11.20
2022-09-23T03:22:12.093Z,10.96
2022-09-23T03:24:45.007Z,10.91
2022-09-23T03:27:19.846Z,10.90
2022-09-23T03:29:51.035Z,10.81
2022-09-23T03:32:22.229Z,10.64
2022-09-23T03:34:52.549Z,10.71
2022-09-23T03:37:54.123Z,10.54
2022-09-23T03:40:27.461Z,10.72
2022-09-23T03:42:57.735Z,10.79
2022-09-23T03:45:33.820Z,10.83
2022-09-23T03:48:01.690Z,10.83
2022-09-23T03:50:29.430Z,10.80
2022-09-23T03:52:56.944Z,10.79
2022-09-23T03:55:24.393Z,10.68
2022-09-23T03:57:54.958Z,10.74
2022-09-23T04:00:22.417Z,10.93
2022-09-23T04:02:50.100Z,10.99
2022-09-23T04:05:18.604Z,10.91
2022-09-23T04:07:46.002Z,10.97
2022-09-23T04:10:13.402Z,10.88
2022-09-23T04:12:41.776Z,10.93
2022-09-23T04:15:09.525Z,10.93
2022-09-23T04:17:37.071Z,10.98
2022-09-23T04:20:04.927Z,11.06
2022-09-23T04:22:35.387Z,10.87
2022-09-23T04:25:02.777Z,10.98
2022-09-23T04:27:33.076Z,11.00
2022-09-23T04:30:02.896Z,10.92
2022-09-23T04:32:31.672Z,10.75
2022-09-23T04:34:59.044Z,10.58
2022-09-23T04:37:26.934Z,10.94
2022-09-23T04:39:54.595Z,10.80
2022-09-23T04:42:22.212Z,10.69
2022-09-23T04:44:49.530Z,10.77
2022-09-23T04:47:19.629Z,10.72
2022-09-23T04:49:47.005Z,10.46
2022-09-23T04:52:14.411Z,10.37
2022-09-23T04:54:42.020Z,10.38
2022-09-23T04:57:11.285Z,10.44
2022-09-23T04:59:38.856Z,10.63
2022-09-23T05:02:06.295Z,10.80
2022-09-23T05:04:33.714Z,10.86
2022-09-23T05:07:03.445Z,10.89
2022-09-23T05:09:31.469Z,10.86
2022-09-23T05:11:58.860Z,11.02
2022-09-23T05:14:26.255Z,11.15
2022-09-23T05:16:53.714Z,11.32
2022-09-23T05:19:22.112Z,11.34
2022-09-23T05:21:49.703Z,11.38
2022-09-23T05:24:17.151Z,11.48
2022-09-23T05:26:48.422Z,11.55
2022-09-23T05:29:15.804Z,11.72
2022-09-23T05:31:43.190Z,11.86
2022-09-23T05:34:11.580Z,12.07
2022-09-23T05:36:39.354Z,12.33
2022-09-23T05:39:09.667Z,12.25
2022-09-23T05:41:41.985Z,12.32
2022-09-23T05:44:09.763Z,12.49
2022-09-23T05:46:37.238Z,12.67
2022-09-23T05:49:05.844Z,12.79
2022-09-23T05:51:38.242Z,12.84
2022-09-23T05:54:06.115Z,13.01
2022-09-23T05:56:34.832Z,13.19
2022-09-23T05:59:03.562Z,13.32
2022-09-23T06:01:34.227Z,13.54
2022-09-23T06:04:04.414Z,13.71
2022-09-23T06:06:33.715Z,13.90
2022-09-23T06:09:01.810Z,13.94
2022-09-23T06:11:34.592Z,14.24
2022-09-23T06:14:02.937Z,14.28
2022-09-23T06:16:33.207Z,14.42
2022-09-23T06:19:06.114Z,14.22
2022-09-23T06:21:35.521Z,14.49
2022-09-23T06:24:04.001Z,14.51
2022-09-23T06:26:34.018Z,14.63
2022-09-23T06:29:06.365Z,14.76
2022-09-23T06:31:34.316Z,15.07
2022-09-23T06:34:11.104Z,15.22
2022-09-23T06:36:45.736Z,15.39
2022-09-23T06:39:17.500Z,15.57
2022-09-23T06:41:45.647Z,15.65
2022-09-23T06:44:14.354Z,15.75
2022-09-23T06:46:47.955Z,15.80
2022-09-23T06:49:16.460Z,15.85
2022-09-23T06:51:43.825Z,16.22
2022-09-23T06:54:33.772Z,16.08
2022-09-23T06:57:01.195Z,16.38
2022-09-23T06:59:28.583Z,16.54
2022-09-23T07:01:56.498Z,16.69
2022-09-23T07:04:28.595Z,17.10
2022-09-23T07:06:57.713Z,17.08
2022-09-23T07:09:26.161Z,17.31
2022-09-23T07:11:55.966Z,17.48
2022-09-23T07:14:24.957Z,17.61
2022-09-23T07:16:54.177Z,17.47
2022-09-23T07:19:21.845Z,17.64
2022-09-23T07:21:54.237Z,17.58
2022-09-23T07:24:23.129Z,17.42
2022-09-23T07:26:55.602Z,17.50
2022-09-23T07:29:24.838Z,17.64
2022-09-23T07:32:09.599Z,17.89
2022-09-23T07:34:40.741Z,18.26
2022-09-23T07:37:08.285Z,18.59
2022-09-23T07:39:36.980Z,18.51
2022-09-23T07:42:05.514Z,18.47
2022-09-23T07:44:33.903Z,18.42
2022-09-23T07:47:01.373Z,18.59
2022-09-23T07:49:28.853Z,18.32
2022-09-23T07:51:56.524Z,18.45
2022-09-23T07:54:32.250Z,18.93
2022-09-23T07:57:00.434Z,18.94
2022-09-23T07:59:34.139Z,19.11
2022-09-23T08:02:02.036Z,19.12
2022-09-23T08:04:33.394Z,19.29
2022-09-23T08:07:06.136Z,19.22
2022-09-23T08:09:41.644Z,19.12
2022-09-23T08:12:13.894Z,19.15
2022-09-23T08:14:43.560Z,19.23
2022-09-23T08:17:15.395Z,19.37
2022-09-23T08:19:50.367Z,20.06
2022-09-23T08:22:17.863Z,20.05
2022-09-23T08:24:45.472Z,19.49
2022-09-23T08:27:15.329Z,19.49
2022-09-23T08:29:42.574Z,19.71
2022-09-23T08:32:10.018Z,20.06
2022-09-23T08:34:40.118Z,19.94
2022-09-23T08:37:11.625Z,19.96
2022-09-23T08:39:38.960Z,20.05
2022-09-23T08:42:20.282Z,19.85
2022-09-23T08:44:58.024Z,19.68
2022-09-23T08:47:30.100Z,19.87
2022-09-23T08:50:19.398Z,20.57
2022-09-23T08:52:55.318Z,20.66
2022-09-23T08:55:33.161Z,20.72
2022-09-23T09:01:07.749Z,21.32
2022-09-23T09:03:43.491Z,21.74
2022-09-23T09:06:20.834Z,21.42
2022-09-23T09:08:59.309Z,21.33
2022-09-23T09:11:36.439Z,21.29
2022-09-23T09:14:32.379Z,21.19
2022-09-23T09:17:10.549Z,21.56
2022-09-23T09:19:54.414Z,21.18
2022-09-23T09:22:53.037Z,21.18
2022-09-23T09:25:50.784Z,21.35
2022-09-23T09:28:31.205Z,21.51
2022-09-23T09:31:02.961Z,21.67
2022-09-23T09:33:47.795Z,21.65
2022-09-23T09:36:24.140Z,22.12
2022-09-23T09:38:55.600Z,22.75
2022-09-23T09:41:26.008Z,23.03
2022-09-23T09:43:57.999Z,23.70
2022-09-23T09:46:49.736Z,22.97
2022-09-23T09:49:23.695Z,21.61
2022-09-23T09:52:13.587Z,21.74
2022-09-23T09:54:41.051Z,22.37
2022-09-23T09:57:32.188Z,22.15
2022-09-23T10:00:26.960Z,21.91
2022-09-23T10:03:16.699Z,21.49
2022-09-23T10:05:49.168Z,21.74
2022-09-23T10:08:37.501Z,21.69
2022-09-23T10:11:13.319Z,22.23
2022-09-23T10:14:05.956Z,22.47
2022-09-23T10:16:34.852Z,22.45
2022-09-23T10:19:30.681Z,22.89
2022-09-23T10:22:01.878Z,23.57
2022-09-23T10:27:34.962Z,23.06
2022-09-23T10:30:22.227Z,23.22
2022-09-23T10:32:51.113Z,23.93
2022-09-23T10:35:24.170Z,23.68
2022-09-23T10:38:00.996Z,23.35
2022-09-23T10:40:56.886Z,23.89
2022-09-23T10:44:18.464Z,23.96
2022-09-23T10:47:10.767Z,23.67
2022-09-23T10:49:54.126Z,24.26
2022-09-23T10:52:48.450Z,23.26
2022-09-23T10:56:03.616Z,23.52
2022-09-23T10:58:33.723Z,23.27
2022-09-23T11:01:01.532Z,24.06
2022-09-23T11:03:58.642Z,24.53
2022-09-23T11:06:32.569Z,24.22
2022-09-23T11:09:29.565Z,23.96
2022-09-23T11:12:16.718Z,24.19
2022-09-23T11:15:20.071Z,24.11
2022-09-23T11:18:12.642Z,24.20
2022-09-23T11:21:03.428Z,23.83
2022-09-23T11:23:55.744Z,24.20
2022-09-23T11:26:56.895Z,23.74
2022-09-23T11:29:59.631Z,24.53
2022-09-23T11:32:51.542Z,24.04
2022-09-23T11:35:24.773Z,23.57
2022-09-23T11:38:16.683Z,24.04
2022-09-23T11:40:56.682Z,26.06
2022-09-23T11:43:31.604Z,26.52
2022-09-23T11:46:04.737Z,28.37
2022-09-23T11:48:44.673Z,29.66
2022-09-23T11:51:27.584Z,28.04
2022-09-23T11:54:00.114Z,28.78
2022-09-23T11:56:38.352Z,28.07
2022-09-23T11:59:39.981Z,27.05
2022-09-23T12:02:41.460Z,26.72
2022-09-23T12:05:20.709Z,26.21
2022-09-23T12:08:10.320Z,26.08
2022-09-23T12:10:45.799Z,26.01
2022-09-23T12:13:27.765Z,26.07
2022-09-23T12:16:08.529Z,26.00
2022-09-23T12:18:44.694Z,25.24
2022-09-23T12:21:50.992Z,24.69
2022-09-23T12:24:54.635Z,23.18
2022-09-23T12:27:32.194Z,23.62
2022-09-23T12:30:05.996Z,23.12
2022-09-23T12:32:34.250Z,23.69
2022-09-23T12:35:02.980Z,23.68
2022-09-23T12:37:38.964Z,23.61
2022-09-23T12:40:14.344Z,24.07
2022-09-23T12:42:46.324Z,23.99
2022-09-23T12:45:40.965Z,24.03
2022-09-23T12:48:47.789Z,24.28
2022-09-23T12:51:52.498Z,24.47
2022-09-23T12:54:25.237Z,24.65
2022-09-23T12:56:56.232Z,24.74
2022-09-23T12:59:55.053Z,24.55
2022-09-23T13:02:30.134Z,24.19
2022-09-23T13:05:22.296Z,24.00
2022-09-23T13:08:01.383Z,24.27
2022-09-23T13:10:34.178Z,23.81
2022-09-23T13:13:20.163Z,24.49
2022-09-23T13:15:50.482Z,24.35
2022-09-23T13:18:22.936Z,24.15
2022-09-23T13:20:54.857Z,23.77
2022-09-23T13:23:30.364Z,23.87
2022-09-23T13:26:01.975Z,23.86
2022-09-23T13:28:38.441Z,23.09
2022-09-23T13:31:16.136Z,23.23
2022-09-23T13:33:52.061Z,23.64
2022-09-23T13:36:23.696Z,23.66
2022-09-23T13:39:18.385Z,24.07
2022-09-23T13:42:07.752Z,23.51
2022-09-23T13:44:36.292Z,23.34
2022-09-23T13:47:03.751Z,23.45
2022-09-23T13:49:38.473Z,23.44
2022-09-23T13:52:26.625Z,23.73
2022-09-23T13:54:54.722Z,23.75
2022-09-23T13:57:26.860Z,23.59
2022-09-23T14:00:00.393Z,23.80
2022-09-23T14:02:28.866Z,23.30
2022-09-23T14:04:59.416Z,22.97
2022-09-23T14:07:29.716Z,23.28
2022-09-23T14:09:57.992Z,23.37
2022-09-23T14:12:25.457Z,22.75
2022-09-23T14:14:53.466Z,22.60
2022-09-23T14:17:28.711Z,22.76
2022-09-23T14:19:58.718Z,22.50
2022-09-23T14:22:28.246Z,22.53
2022-09-23T14:24:57.691Z,22.14
2022-09-23T14:27:30.261Z,22.23
2022-09-23T14:29:58.696Z,22.19
2022-09-23T14:32:29.210Z,22.05
2022-09-23T14:35:06.633Z,22.05
2022-09-23T14:37:55.372Z,22.09
2022-09-23T14:40:37.670Z,21.96
2022-09-23T14:43:27.988Z,21.70
2022-09-23T14:45:59.368Z,21.62
2022-09-23T14:48:36.727Z,21.53
2022-09-23T14:51:10.904Z,21.71
2022-09-23T14:53:46.669Z,21.77
2022-09-23T14:56:22.269Z,21.49
2022-09-23T14:59:00.904Z,21.31
2022-09-23T15:01:39.004Z,21.17
2022-09-23T15:04:24.866Z,21.36
2022-09-23T15:06:58.224Z,21.30
2022-09-23T15:09:29.326Z,21.15
2022-09-23T15:11:59.971Z,20.90
2022-09-23T15:14:38.694Z,20.87
2022-09-23T15:17:15.108Z,20.85
2022-09-23T15:19:44.281Z,20.73
2022-09-23T15:22:13.077Z,20.74
2022-09-23T15:24:46.995Z,20.71
2022-09-23T15:27:33.350Z,20.73
2022-09-23T15:30:22.656Z,20.51
2022-09-23T15:32:53.846Z,20.46
2022-09-23T15:35:29.082Z,20.33
2022-09-23T15:38:03.868Z,20.36
2022-09-23T15:40:35.766Z,20.31
2022-09-23T15:43:35.834Z,20.13
2022-09-23T15:46:10.790Z,20.02
2022-09-23T15:48:44.269Z,20.03
2022-09-23T15:51:26.771Z,20.00
2022-09-23T15:54:04.331Z,19.88
2022-09-23T15:56:31.866Z,19.75
2022-09-23T15:58:59.142Z,19.88
2022-09-23T16:01:35.049Z,19.63
2022-09-23T16:04:08.699Z,19.57
2022-09-23T16:06:39.933Z,19.58
2022-09-23T16:09:11.125Z,19.49
2022-09-23T16:11:43.334Z,19.44
2022-09-23T16:14:15.425Z,19.45
2022-09-23T16:16:53.017Z,19.45
2022-09-23T16:19:23.841Z,19.39
2022-09-23T16:21:54.176Z,19.03
2022-09-23T16:24:27.307Z,19.19
2022-09-23T16:27:00.185Z,19.13
2022-09-23T16:29:30.153Z,18.95
2022-09-23T16:31:57.767Z,18.94
2022-09-23T16:34:28.083Z,18.88
2022-09-23T16:36:55.655Z,18.70
2022-09-23T16:39:27.620Z,18.67
2022-09-23T16:41:54.998Z,18.59
2022-09-23T16:44:22.705Z,18.51
2022-09-23T16:46:53.540Z,18.27
2022-09-23T16:49:29.354Z,18.32
2022-09-23T16:51:56.873Z,18.32
2022-09-23T16:54:24.783Z,18.24
2022-09-23T16:56:52.830Z,18.24
2022-09-23T16:59:22.425Z,18.14
2022-09-23T17:02:08.198Z,18.14
2022-09-23T17:04:38.518Z,18.02
2022-09-23T17:07:08.600Z,17.97
2022-09-23T17:09:38.277Z,17.90
2022-09-23T17:12:17.199Z,17.88
2022-09-23T17:14:44.757Z,17.83
2022-09-23T17:17:12.220Z,17.78
2022-09-23T17:19:45.264Z,17.66
2022-09-23T17:22:15.736Z,17.38
2022-09-23T17:24:43.065Z,17.50
2022-09-23T17:27:13.649Z,17.51
2022-09-23T17:29:41.078Z,17.47
2022-09-23T17:32:08.732Z,17.46
2022-09-23T17:34:36.156Z,17.40
2022-09-23T17:37:04.435Z,17.43
2022-09-23T17:39:32.005Z,17.27
2022-09-23T17:41:59.492Z,17.24
2022-09-23T17:44:27.005Z,17.17
2022-09-23T17:46:58.045Z,17.16
2022-09-23T17:49:25.641Z,17.17
2022-09-23T17:51:55.972Z,17.14
2022-09-23T17:54:27.914Z,17.04
2022-09-23T17:56:56.668Z,17.00
2022-09-23T17:59:32.649Z,16.90
2022-09-23T18:02:02.431Z,16.98
2022-09-23T18:04:32.927Z,16.84
2022-09-23T18:07:00.311Z,16.84
2022-09-23T18:09:35.066Z,16.79
2022-09-23T18:12:02.631Z,16.64
2022-09-23T18:14:31.470Z,16.69
2022-09-23T18:17:01.716Z,16.35
2022-09-23T18:19:29.043Z,16.42
2022-09-23T18:21:57.546Z,16.26
2022-09-23T18:24:32.221Z,16.22
2022-09-23T18:27:01.000Z,16.24
2022-09-23T18:29:28.904Z,16.39
2022-09-23T18:31:56.360Z,16.31
2022-09-23T18:34:23.904Z,16.40
2022-09-23T18:36:51.454Z,16.20
2022-09-23T18:39:18.783Z,16.11
2022-09-23T18:41:46.200Z,16.15
2022-09-23T18:44:13.634Z,16.14
2022-09-23T18:46:40.979Z,16.17
2022-09-23T18:49:27.582Z,16.08
2022-09-23T18:51:57.440Z,16.09
2022-09-23T18:54:28.426Z,15.93
2022-09-23T18:56:56.823Z,16.00
2022-09-23T18:59:28.220Z,15.95
2022-09-23T19:01:56.540Z,16.03
2022-09-23T19:04:25.756Z,16.18
2022-09-23T19:06:54.222Z,16.08
2022-09-23T19:09:21.583Z,16.09
2022-09-23T19:11:53.640Z,15.95
2022-09-23T19:14:21.706Z,15.96
2022-09-23T19:16:49.523Z,15.75
2022-09-23T19:19:17.129Z,15.79
2022-09-23T19:21:46.060Z,15.77
2022-09-23T19:24:16.318Z,15.78
2022-09-23T19:26:44.323Z,15.71
2022-09-23T19:29:17.549Z,15.66
2022-09-23T19:31:45.494Z,15.74
2022-09-23T19:34:15.317Z,15.81
2022-09-23T19:36:45.580Z,15.69
2022-09-23T19:39:21.393Z,15.64
2022-09-23T19:41:49.740Z,15.76
2022-09-23T19:44:17.854Z,15.54
2022-09-23T19:46:53.652Z,15.43
2022-09-23T19:49:24.989Z,15.29
2022-09-23T19:51:56.021Z,15.17
2022-09-23T19:54:26.855Z,15.11
2022-09-23T19:56:57.341Z,15.09
2022-09-23T19:59:26.654Z,14.95
2022-09-23T20:01:54.195Z,14.97
2022-09-23T20:04:22.000Z,14.96
2022-09-23T20:06:49.858Z,14.79
2022-09-23T20:09:17.270Z,14.77
2022-09-23T20:11:44.729Z,14.88
2022-09-23T20:14:13.275Z,14.92
2022-09-23T20:16:40.880Z,14.73
2022-09-23T20:19:08.466Z,14.61
2022-09-23T20:21:36.025Z,14.72
2022-09-23T20:24:07.829Z,14.52
2022-09-23T20:27:14.006Z,14.51
2022-09-23T20:29:41.454Z,14.51
2022-09-23T20:32:10.080Z,14.42
2022-09-23T20:34:44.342Z,14.47
2022-09-23T20:37:11.773Z,14.49
2022-09-23T20:39:41.730Z,14.33
2022-09-23T20:42:09.630Z,14.17
2022-09-23T20:44:40.044Z,14.23
2022-09-23T20:47:07.850Z,14.38
2022-09-23T20:49:42.537Z,14.27
2022-09-23T20:52:11.577Z,14.17
2022-09-23T20:54:42.366Z,14.15
2022-09-23T20:57:15.098Z,14.26
2022-09-23T20:59:43.566Z,14.25
2022-09-23T21:02:11.194Z,14.27
2022-09-23T21:04:38.626Z,14.06
2022-09-23T21:07:05.976Z,13.94
2022-09-23T21:09:33.342Z,13.94
2022-09-23T21:12:00.851Z,14.05
2022-09-23T21:14:28.371Z,14.07
2022-09-23T21:16:55.699Z,14.08
2022-09-23T21:19:24.630Z,14.06
2022-09-23T21:21:52.003Z,13.95
2022-09-23T21:27:07.783Z,13.90
2022-09-23T21:29:35.090Z,13.61
2022-09-23T21:32:02.635Z,13.82
2022-09-23T21:34:32.387Z,13.71
2022-09-23T21:36:59.799Z,13.58
2022-09-23T21:39:27.147Z,13.60
2022-09-23T21:41:54.528Z,13.53
2022-09-23T21:44:21.891Z,13.48
2022-09-23T21:46:49.313Z,13.43
2022-09-23T21:49:16.771Z,13.48
2022-09-23T21:51:44.247Z,13.46
2022-09-23T21:54:15.897Z,13.54
2022-09-23T21:56:44.512Z,13.59
2022-09-23T21:59:12.035Z,13.75
2022-09-23T22:01:43.820Z,13.86
2022-09-23T22:04:17.330Z,13.77
2022-09-23T22:06:45.567Z,13.85
2022-09-23T22:09:18.975Z,13.96
2022-09-23T22:12:05.474Z,13.58
2022-09-23T22:14:33.005Z,13.70
2022-09-23T22:17:03.018Z,13.79
2022-09-23T22:19:35.527Z,13.48
2022-09-23T22:22:13.535Z,13.44
2022-09-23T22:24:45.700Z,13.38
2022-09-23T22:27:15.173Z,13.23
2022-09-23T22:30:00.731Z,13.20
2022-09-23T22:32:54.381Z,13.20
2022-09-23T22:35:22.398Z,13.34
2022-09-23T22:37:49.826Z,13.37
2022-09-23T22:40:17.275Z,13.20
2022-09-23T22:42:45.058Z,12.97
2022-09-23T22:45:13.174Z,13.20
2022-09-23T22:47:45.694Z,13.18
2022-09-23T22:50:14.760Z,13.22
2022-09-23T22:52:42.362Z,13.06
2022-09-23T22:55:10.415Z,12.99
2022-09-23T22:57:37.866Z,12.85
2022-09-23T23:00:07.633Z,12.81
2022-09-23T23:02:35.048Z,12.78
2022-09-23T23:05:02.873Z,12.80
2022-09-23T23:07:30.204Z,12.62
2022-09-23T23:09:58.440Z,12.76
2022-09-23T23:12:25.963Z,12.69
2022-09-23T23:14:55.123Z,12.78
2022-09-23T23:17:22.425Z,12.70
2022-09-23T23:19:51.066Z,12.51
2022-09-23T23:22:18.560Z,12.32
2022-09-23T23:24:50.251Z,12.61
2022-09-23T23:27:17.540Z,12.58
2022-09-23T23:29:48.335Z,12.56
2022-09-23T23:32:16.978Z,12.61
2022-09-23T23:34:44.788Z,12.45
2022-09-23T23:37:12.176Z,12.55
2022-09-23T23:39:39.587Z,12.53
2022-09-23T23:42:06.966Z,12.47
2022-09-23T23:44:35.699Z,12.69
2022-09-23T23:47:03.254Z,12.73
2022-09-23T23:49:30.599Z,12.44
2022-09-23T23:51:58.249Z,12.51
2022-09-23T23:54:25.614Z,12.61
2022-09-23T23:56:54.804Z,12.61
2022-09-23T23:59:23.925Z,12.46
